createdAt,value
2023-03-25T00:01:50.346Z,2.67
2023-03-25T00:04:17.725Z,2.97
2023-03-25T00:06:44.191Z,1.60
2023-03-25T00:09:10.578Z,2.33
2023-03-25T00:11:36.941Z,2.20
2023-03-25T00:14:04.424Z,2.47
2023-03-25T00:16:30.835Z,2.00
2023-03-25T00:19:00.206Z,3.03
2023-03-25T00:21:26.548Z,2.53
2023-03-25T00:23:52.884Z,2.85
2023-03-25T00:26:19.234Z,2.60
2023-03-25T00:28:45.718Z,2.35
2023-03-25T00:31:12.959Z,2.63
2023-03-25T00:33:41.712Z,1.98
2023-03-25T00:36:08.574Z,2.42
2023-03-25T00:38:35.477Z,2.05
2023-03-25T00:41:28.490Z,2.90
2023-03-25T00:43:55.698Z,1.90
2023-03-25T00:46:23.375Z,2.53
2023-03-25T00:48:50.712Z,2.10
2023-03-25T00:51:21.314Z,2.80
2023-03-25T00:53:48.385Z,2.90
2023-03-25T00:56:14.726Z,2.65
2023-03-25T00:58:41.322Z,3.00
2023-03-25T01:01:13.300Z,2.72
2023-03-25T01:03:40.315Z,3.38
2023-03-25T01:06:11.571Z,2.70
2023-03-25T01:08:38.592Z,2.80
2023-03-25T01:11:05.530Z,2.75
2023-03-25T01:13:31.855Z,3.00
2023-03-25T01:15:58.383Z,2.83
2023-03-25T01:18:24.802Z,2.42
2023-03-25T01:20:51.616Z,2.65
2023-03-25T01:23:17.985Z,3.28
2023-03-25T01:25:44.309Z,3.17
2023-03-25T01:28:10.814Z,2.20
2023-03-25T01:30:37.196Z,3.05
2023-03-25T01:33:03.583Z,2.10
2023-03-25T01:35:30.095Z,3.25
2023-03-25T01:37:56.533Z,2.70
2023-03-25T01:40:24.118Z,2.55
2023-03-25T01:42:51.478Z,2.65
2023-03-25T01:45:19.260Z,2.67
2023-03-25T01:47:46.894Z,2.35
2023-03-25T01:50:14.629Z,2.33
2023-03-25T01:52:43.613Z,3.30
2023-03-25T01:55:10.408Z,3.20
2023-03-25T01:57:41.708Z,2.63
2023-03-25T02:00:09.576Z,2.53
2023-03-25T02:02:36.761Z,2.83
2023-03-25T02:05:12.161Z,3.33
2023-03-25T02:07:42.609Z,2.88
2023-03-25T02:10:10.642Z,3.25
2023-03-25T02:12:36.977Z,2.78
2023-03-25T02:15:05.205Z,3.17
2023-03-25T02:17:42.752Z,2.65
2023-03-25T02:20:36.045Z,3.63
2023-03-25T02:23:22.088Z,3.92
2023-03-25T02:28:15.170Z,3.50
2023-03-25T02:30:56.890Z,3.70
2023-03-25T02:33:25.977Z,3.97
2023-03-25T02:36:01.329Z,4.00
2023-03-25T02:38:31.255Z,4.82
2023-03-25T02:41:01.547Z,4.40
2023-03-25T02:43:27.947Z,3.58
2023-03-25T02:45:56.218Z,3.75
2023-03-25T02:48:25.604Z,4.05
2023-03-25T02:50:54.004Z,3.60
2023-03-25T02:53:24.973Z,3.97
2023-03-25T02:55:52.978Z,4.10
2023-03-25T02:58:21.475Z,3.80
2023-03-25T03:00:49.111Z,4.25
2023-03-25T03:03:16.120Z,4.47
2023-03-25T03:05:48.731Z,3.58
2023-03-25T03:08:19.472Z,3.15
2023-03-25T03:11:09.180Z,4.82
2023-03-25T03:13:38.417Z,3.60
2023-03-25T03:16:04.821Z,3.75
2023-03-25T03:18:34.345Z,3.30
2023-03-25T03:21:08.747Z,3.28
2023-03-25T03:23:41.116Z,3.13
2023-03-25T03:26:22.134Z,4.45
2023-03-25T03:28:57.983Z,3.67
2023-03-25T03:34:18.760Z,4.73
2023-03-25T03:36:47.463Z,4.43
2023-03-25T03:39:19.850Z,4.90
2023-03-25T03:41:48.686Z,4.57
2023-03-25T03:44:16.956Z,4.07
2023-03-25T03:46:46.170Z,4.35
2023-03-25T03:49:17.065Z,4.68
2023-03-25T03:51:47.047Z,3.47
2023-03-25T03:54:22.473Z,4.60
2023-03-25T03:56:58.299Z,3.30
2023-03-25T03:59:47.730Z,4.68
2023-03-25T04:02:27.225Z,3.72
2023-03-25T04:04:54.648Z,4.25
2023-03-25T04:07:27.800Z,2.53
2023-03-25T04:09:57.498Z,4.10
2023-03-25T04:12:37.715Z,4.20
2023-03-25T04:15:05.814Z,3.45
2023-03-25T04:17:35.400Z,4.28
2023-03-25T04:20:08.826Z,3.63
2023-03-25T04:22:37.782Z,3.65
2023-03-25T04:25:05.847Z,4.65
2023-03-25T04:27:32.779Z,6.20
2023-03-25T04:30:01.701Z,4.45
2023-03-25T04:32:28.261Z,4.50
2023-03-25T04:34:57.663Z,3.97
2023-03-25T04:37:27.701Z,3.50
2023-03-25T04:39:56.102Z,3.67
2023-03-25T04:42:25.733Z,3.40
2023-03-25T04:44:52.828Z,3.55
2023-03-25T04:47:21.986Z,3.83
2023-03-25T04:49:48.433Z,4.53
2023-03-25T04:52:14.762Z,3.97
2023-03-25T04:54:41.152Z,4.38
2023-03-25T04:57:10.697Z,3.65
2023-03-25T04:59:37.146Z,3.15
2023-03-25T05:02:05.851Z,4.50
2023-03-25T05:04:32.462Z,3.63
2023-03-25T05:06:58.918Z,4.43
2023-03-25T05:09:25.282Z,3.45
2023-03-25T05:11:52.463Z,3.53
2023-03-25T05:14:19.832Z,2.55
2023-03-25T05:16:46.613Z,3.97
2023-03-25T05:19:13.254Z,2.95
2023-03-25T05:21:41.072Z,4.50
2023-03-25T05:24:11.657Z,4.30
2023-03-25T05:26:39.675Z,3.90
2023-03-25T05:29:14.237Z,3.95
2023-03-25T05:31:42.673Z,3.83
2023-03-25T05:34:09.349Z,3.33
2023-03-25T05:36:35.742Z,4.65
2023-03-25T05:39:02.506Z,4.55
2023-03-25T05:41:39.098Z,5.32
2023-03-25T05:44:09.553Z,2.78
2023-03-25T05:46:36.239Z,3.70
2023-03-25T05:49:03.006Z,3.88
2023-03-25T05:51:33.767Z,3.92
2023-03-25T05:54:01.516Z,3.67
2023-03-25T05:56:28.331Z,2.85
2023-03-25T05:58:54.967Z,3.30
2023-03-25T06:01:32.845Z,3.53
2023-03-25T06:04:03.946Z,3.63
2023-03-25T06:06:32.120Z,3.25
2023-03-25T06:08:58.941Z,4.28
2023-03-25T06:11:25.682Z,3.97
2023-03-25T06:13:52.134Z,3.22
2023-03-25T06:16:20.312Z,3.72
2023-03-25T06:18:56.068Z,4.18
2023-03-25T06:21:23.338Z,3.17
2023-03-25T06:23:49.649Z,3.92
2023-03-25T06:26:16.861Z,3.08
2023-03-25T06:28:43.405Z,3.53
2023-03-25T06:31:17.256Z,3.47
2023-03-25T06:33:44.299Z,2.90
2023-03-25T06:36:11.789Z,2.95
2023-03-25T06:38:38.751Z,3.60
2023-03-25T06:41:07.203Z,3.03
2023-03-25T06:43:34.231Z,3.13
2023-03-25T06:46:00.625Z,3.42
2023-03-25T06:48:27.174Z,3.38
2023-03-25T06:50:53.657Z,2.78
2023-03-25T06:53:20.367Z,2.90
2023-03-25T06:55:46.969Z,2.65
2023-03-25T06:58:13.380Z,3.28
2023-03-25T07:00:39.828Z,4.13
2023-03-25T07:03:06.197Z,3.17
2023-03-25T07:05:32.678Z,3.55
2023-03-25T07:07:59.274Z,3.15
2023-03-25T07:10:25.983Z,2.70
2023-03-25T07:12:52.287Z,3.88
2023-03-25T07:15:18.696Z,2.35
2023-03-25T07:17:45.274Z,3.72
2023-03-25T07:20:13.455Z,3.33
2023-03-25T07:22:41.223Z,3.15
2023-03-25T07:25:07.743Z,3.22
2023-03-25T07:27:34.129Z,3.08
2023-03-25T07:30:00.486Z,3.20
2023-03-25T07:32:26.847Z,2.58
2023-03-25T07:34:53.185Z,2.72
2023-03-25T07:37:19.626Z,3.10
2023-03-25T07:39:46.191Z,2.88
2023-03-25T07:42:12.550Z,3.47
2023-03-25T07:44:38.942Z,2.90
2023-03-25T07:47:05.631Z,2.95
2023-03-25T07:49:31.988Z,3.10
2023-03-25T07:51:58.351Z,2.53
2023-03-25T07:54:24.754Z,3.65
2023-03-25T07:56:52.884Z,3.50
2023-03-25T07:59:19.425Z,2.80
2023-03-25T08:01:46.102Z,3.17
2023-03-25T08:04:13.847Z,2.22
2023-03-25T08:06:40.447Z,4.03
2023-03-25T08:09:07.423Z,3.58
2023-03-25T08:11:34.527Z,3.45
2023-03-25T08:14:01.093Z,3.35
2023-03-25T08:16:27.677Z,3.90
2023-03-25T08:18:54.110Z,2.67
2023-03-25T08:21:25.554Z,3.13
2023-03-25T08:23:54.855Z,3.63
2023-03-25T08:26:21.274Z,3.25
2023-03-25T08:28:47.960Z,2.95
2023-03-25T08:31:15.265Z,2.70
2023-03-25T08:33:42.893Z,3.60
2023-03-25T08:36:13.773Z,4.00
2023-03-25T08:38:41.561Z,2.63
2023-03-25T08:41:07.988Z,3.67
2023-03-25T08:43:34.394Z,3.83
2023-03-25T08:46:01.090Z,3.28
2023-03-25T08:48:27.576Z,2.55
2023-03-25T08:50:53.974Z,3.28
2023-03-25T08:53:20.386Z,2.83
2023-03-25T08:55:46.766Z,3.50
2023-03-25T08:58:13.175Z,3.50
2023-03-25T09:00:39.509Z,3.65
2023-03-25T09:03:06.374Z,4.38
2023-03-25T09:05:33.100Z,4.45
2023-03-25T09:07:59.600Z,3.55
2023-03-25T09:10:27.042Z,3.78
2023-03-25T09:12:53.586Z,3.92
2023-03-25T09:15:20.030Z,3.03
2023-03-25T09:17:46.748Z,3.08
2023-03-25T09:20:13.305Z,3.60
2023-03-25T09:22:40.395Z,3.40
2023-03-25T09:25:07.712Z,3.67
2023-03-25T09:27:34.624Z,3.58
2023-03-25T09:30:01.442Z,4.40
2023-03-25T09:32:30.854Z,3.47
2023-03-25T09:34:57.304Z,3.33
2023-03-25T09:37:23.875Z,3.13
2023-03-25T09:39:50.307Z,3.70
2023-03-25T09:42:37.431Z,3.65
2023-03-25T09:45:11.921Z,2.72
2023-03-25T09:47:39.454Z,4.07
2023-03-25T09:50:11.052Z,3.38
2023-03-25T09:52:54.142Z,3.40
2023-03-25T09:55:24.430Z,3.40
2023-03-25T09:57:55.083Z,3.22
2023-03-25T10:00:28.908Z,3.63
2023-03-25T10:03:13.969Z,4.75
2023-03-25T10:05:40.527Z,2.78
2023-03-25T10:08:07.056Z,2.97
2023-03-25T10:10:52.442Z,3.40
2023-03-25T10:13:20.035Z,3.30
2023-03-25T10:15:58.603Z,4.75
2023-03-25T10:18:27.945Z,3.03
2023-03-25T10:21:03.321Z,3.38
2023-03-25T10:23:32.720Z,3.70
2023-03-25T10:26:01.610Z,3.85
2023-03-25T10:28:33.147Z,3.58
2023-03-25T10:31:00.519Z,3.75
2023-03-25T10:33:35.186Z,4.25
2023-03-25T10:36:02.201Z,3.40
2023-03-25T10:38:30.258Z,3.22
2023-03-25T10:41:05.273Z,4.40
2023-03-25T10:43:34.228Z,3.70
2023-03-25T10:46:19.491Z,3.33
2023-03-25T10:48:46.157Z,2.88
2023-03-25T10:51:24.545Z,3.10
2023-03-25T10:53:53.141Z,4.53
2023-03-25T10:56:34.340Z,3.08
2023-03-25T10:59:03.298Z,3.17
2023-03-25T11:01:37.351Z,3.60
2023-03-25T11:04:05.252Z,4.45
2023-03-25T11:06:33.076Z,3.45
2023-03-25T11:09:15.457Z,4.78
2023-03-25T11:11:42.250Z,5.35
2023-03-25T11:14:09.358Z,4.70
2023-03-25T11:16:36.788Z,3.58
2023-03-25T11:19:03.848Z,3.03
2023-03-25T11:21:35.449Z,3.22
2023-03-25T11:24:02.498Z,3.42
2023-03-25T11:26:34.093Z,3.45
2023-03-25T11:29:12.822Z,2.97
2023-03-25T11:31:44.462Z,3.72
2023-03-25T11:34:11.330Z,3.53
2023-03-25T11:36:47.551Z,3.22
2023-03-25T11:39:26.055Z,3.22
2023-03-25T11:41:52.528Z,3.35
2023-03-25T11:44:23.844Z,3.67
2023-03-25T11:46:51.887Z,3.67
2023-03-25T11:49:20.222Z,3.05
2023-03-25T11:51:47.006Z,2.40
2023-03-25T11:54:15.865Z,3.20
2023-03-25T11:56:44.976Z,2.85
2023-03-25T11:59:37.710Z,2.40
2023-03-25T12:02:17.506Z,3.85
2023-03-25T12:04:58.006Z,2.97
2023-03-25T12:07:24.676Z,3.45
2023-03-25T12:09:55.812Z,2.63
2023-03-25T12:12:42.482Z,2.80
2023-03-25T12:15:09.012Z,4.13
2023-03-25T12:17:47.476Z,4.00
2023-03-25T12:20:20.029Z,2.80
2023-03-25T12:22:55.738Z,3.00
2023-03-25T12:25:36.489Z,2.70
2023-03-25T12:28:10.653Z,2.58
2023-03-25T12:30:49.309Z,2.75
2023-03-25T12:33:16.410Z,3.00
2023-03-25T12:35:54.855Z,3.42
2023-03-25T12:38:21.232Z,2.40
2023-03-25T12:40:47.591Z,1.67
2023-03-25T12:43:22.445Z,2.53
2023-03-25T12:46:05.175Z,2.70
2023-03-25T12:48:34.314Z,1.85
2023-03-25T12:51:01.077Z,2.13
2023-03-25T12:53:46.454Z,2.28
2023-03-25T12:56:14.172Z,2.27
2023-03-25T12:58:40.737Z,2.72
2023-03-25T13:01:26.111Z,2.00
2023-03-25T13:03:55.612Z,2.87
2023-03-25T13:06:30.790Z,2.38
2023-03-25T13:08:57.107Z,3.80
2023-03-25T13:11:30.592Z,3.70
2023-03-25T13:13:58.697Z,2.58
2023-03-25T13:16:27.667Z,2.47
2023-03-25T13:18:58.058Z,2.30
2023-03-25T13:21:24.554Z,2.97
2023-03-25T13:23:54.536Z,3.30
2023-03-25T13:26:25.163Z,2.83
2023-03-25T13:28:56.038Z,2.10
2023-03-25T13:31:27.396Z,2.20
2023-03-25T13:33:57.174Z,3.00
2023-03-25T13:36:29.515Z,3.50
2023-03-25T13:39:06.544Z,4.72
2023-03-25T13:41:36.374Z,3.50
2023-03-25T13:44:02.767Z,3.30
2023-03-25T13:46:36.306Z,3.03
2023-03-25T13:49:10.500Z,2.53
2023-03-25T13:51:36.927Z,1.95
2023-03-25T13:54:06.982Z,2.80
2023-03-25T13:56:52.137Z,2.10
2023-03-25T13:59:40.312Z,2.70
2023-03-25T14:02:07.110Z,1.88
2023-03-25T14:05:00.195Z,2.25
2023-03-25T14:07:45.424Z,3.35
2023-03-25T14:10:14.534Z,1.65
2023-03-25T14:12:43.261Z,2.70
2023-03-25T14:15:15.263Z,2.60
2023-03-25T14:17:44.921Z,2.13
2023-03-25T14:20:12.470Z,2.15
2023-03-25T14:22:43.837Z,1.60
2023-03-25T14:25:33.413Z,2.95
2023-03-25T14:28:00.143Z,2.08
2023-03-25T14:30:30.443Z,1.90
2023-03-25T14:32:57.183Z,2.10
2023-03-25T14:35:36.679Z,3.35
2023-03-25T14:38:18.320Z,1.90
2023-03-25T14:41:02.140Z,1.42
2023-03-25T14:43:40.461Z,1.90
2023-03-25T14:46:13.364Z,1.92
2023-03-25T14:48:54.452Z,2.55
2023-03-25T14:51:30.497Z,2.33
2023-03-25T14:54:23.044Z,2.83
2023-03-25T14:57:15.930Z,2.30
2023-03-25T14:59:46.838Z,2.33
2023-03-25T15:02:20.754Z,2.45
2023-03-25T15:04:52.712Z,2.53
2023-03-25T15:07:37.490Z,2.60
2023-03-25T15:10:05.948Z,2.03
2023-03-25T15:12:32.542Z,1.60
2023-03-25T15:15:24.790Z,2.45
2023-03-25T15:17:51.206Z,2.42
2023-03-25T15:20:23.541Z,3.38
2023-03-25T15:23:08.817Z,3.08
2023-03-25T15:25:35.857Z,2.60
2023-03-25T15:28:26.164Z,3.28
2023-03-25T15:30:53.016Z,2.92
2023-03-25T15:33:19.746Z,2.85
2023-03-25T15:35:47.552Z,3.53
2023-03-25T15:38:19.739Z,4.30
2023-03-25T15:41:04.809Z,3.15
2023-03-25T15:44:00.572Z,3.95
2023-03-25T15:46:42.722Z,2.88
2023-03-25T15:49:21.458Z,2.70
2023-03-25T15:52:03.068Z,3.25
2023-03-25T15:54:35.417Z,2.80
2023-03-25T15:57:04.997Z,2.70
2023-03-25T15:59:35.972Z,2.60
2023-03-25T16:02:03.251Z,3.05
2023-03-25T16:04:29.646Z,2.33
2023-03-25T16:06:56.994Z,1.95
2023-03-25T16:09:27.257Z,2.42
2023-03-25T16:11:58.876Z,2.08
2023-03-25T16:14:28.759Z,2.70
2023-03-25T16:16:56.567Z,4.20
2023-03-25T16:19:25.402Z,2.58
2023-03-25T16:21:52.759Z,3.92
2023-03-25T16:24:23.461Z,2.95
2023-03-25T16:26:49.847Z,3.17
2023-03-25T16:29:18.299Z,3.42
2023-03-25T16:31:51.111Z,3.85
2023-03-25T16:34:17.625Z,3.63
2023-03-25T16:36:45.408Z,4.07
2023-03-25T16:39:13.829Z,3.08
2023-03-25T16:41:42.807Z,3.55
2023-03-25T16:44:13.245Z,3.30
2023-03-25T16:46:39.824Z,3.25
2023-03-25T16:49:07.160Z,2.25
2023-03-25T16:51:36.828Z,2.95
2023-03-25T16:54:08.148Z,2.80
2023-03-25T16:56:37.316Z,2.97
2023-03-25T16:59:08.036Z,3.22
2023-03-25T17:01:38.491Z,3.50
2023-03-25T17:04:07.886Z,2.15
2023-03-25T17:06:35.461Z,1.55
2023-03-25T17:09:02.285Z,2.00
2023-03-25T17:11:30.518Z,1.40
2023-03-25T17:14:02.489Z,2.38
2023-03-25T17:16:30.989Z,2.50
2023-03-25T17:18:57.882Z,2.78
2023-03-25T17:21:27.305Z,2.55
2023-03-25T17:23:54.594Z,2.30
2023-03-25T17:26:22.861Z,3.03
2023-03-25T17:28:58.671Z,3.88
2023-03-25T17:33:52.418Z,3.45
2023-03-25T17:36:19.633Z,3.03
2023-03-25T17:38:47.717Z,3.97
2023-03-25T17:41:15.388Z,3.90
2023-03-25T17:43:43.047Z,4.43
2023-03-25T17:46:10.167Z,5.57
2023-03-25T17:48:36.789Z,4.20
2023-03-25T17:51:03.380Z,3.70
2023-03-25T17:53:30.204Z,3.28
2023-03-25T17:55:59.075Z,3.92
2023-03-25T17:58:25.841Z,4.05
2023-03-25T18:00:53.001Z,3.30
2023-03-25T18:03:24.735Z,2.95
2023-03-25T18:05:53.706Z,2.72
2023-03-25T18:08:21.833Z,4.40
2023-03-25T18:10:48.919Z,4.75
2023-03-25T18:13:15.424Z,4.28
2023-03-25T18:15:42.257Z,4.07
2023-03-25T18:18:14.508Z,3.30
2023-03-25T18:20:41.263Z,4.63
2023-03-25T18:23:07.773Z,2.92
2023-03-25T18:25:34.177Z,4.38
2023-03-25T18:28:00.605Z,3.88
2023-03-25T18:30:28.692Z,4.03
2023-03-25T18:32:55.620Z,4.47
2023-03-25T18:35:22.113Z,4.72
2023-03-25T18:37:48.826Z,3.88
2023-03-25T18:40:15.484Z,4.10
2023-03-25T18:42:41.849Z,4.45
2023-03-25T18:45:08.546Z,4.35
2023-03-25T18:47:35.055Z,4.22
2023-03-25T18:50:01.561Z,4.47
2023-03-25T18:52:27.895Z,3.65
2023-03-25T18:54:54.278Z,3.85
2023-03-25T18:57:23.884Z,2.88
2023-03-25T18:59:50.621Z,3.13
2023-03-25T19:02:17.046Z,2.63
2023-03-25T19:04:59.670Z,3.92
2023-03-25T19:07:27.088Z,3.03
2023-03-25T19:09:54.165Z,2.70
2023-03-25T19:12:20.486Z,3.60
2023-03-25T19:14:46.845Z,2.60
2023-03-25T19:17:13.271Z,2.58
2023-03-25T19:19:40.926Z,1.98
2023-03-25T19:22:09.765Z,2.58
2023-03-25T19:24:36.108Z,2.80
2023-03-25T19:27:02.481Z,2.03
2023-03-25T19:29:29.201Z,2.40
2023-03-25T19:31:55.590Z,2.63
2023-03-25T19:34:22.199Z,2.25
2023-03-25T19:36:48.692Z,2.63
2023-03-25T19:39:15.965Z,2.25
2023-03-25T19:41:42.960Z,1.60
2023-03-25T19:44:09.463Z,2.72
2023-03-25T19:46:35.889Z,2.45
2023-03-25T19:49:02.437Z,2.08
2023-03-25T19:51:28.841Z,2.25
2023-03-25T19:53:55.312Z,2.22
2023-03-25T19:56:21.776Z,2.17
2023-03-25T19:58:48.121Z,1.75
2023-03-25T20:01:14.655Z,2.13
2023-03-25T20:03:41.959Z,1.63
2023-03-25T20:06:08.946Z,1.52
2023-03-25T20:08:35.702Z,1.90
2023-03-25T20:11:08.112Z,1.60
2023-03-25T20:13:35.863Z,1.40
2023-03-25T20:16:03.113Z,1.27
2023-03-25T20:18:29.758Z,1.45
2023-03-25T20:20:56.132Z,1.45
2023-03-25T20:23:22.747Z,1.52
2023-03-25T20:25:55.377Z,0.90
2023-03-25T20:28:22.812Z,1.45
2023-03-25T20:30:52.458Z,1.42
2023-03-25T20:33:19.199Z,1.73
2023-03-25T20:35:45.927Z,1.45
2023-03-25T20:38:14.308Z,1.30
2023-03-25T20:40:44.469Z,1.27
2023-03-25T20:43:13.745Z,1.40
2023-03-25T20:45:40.560Z,1.05
2023-03-25T20:48:08.712Z,1.48
2023-03-25T20:50:35.456Z,1.33
2023-03-25T20:53:01.789Z,1.88
2023-03-25T20:55:28.617Z,1.27
2023-03-25T20:57:55.001Z,1.77
2023-03-25T21:00:21.393Z,1.33
2023-03-25T21:02:50.258Z,1.25
2023-03-25T21:05:16.753Z,1.35
2023-03-25T21:07:43.141Z,1.38
2023-03-25T21:10:09.673Z,2.63
2023-03-25T21:12:43.788Z,1.05
2023-03-25T21:15:11.284Z,1.60
2023-03-25T21:17:37.936Z,1.50
2023-03-25T21:20:07.882Z,1.55
2023-03-25T21:22:34.369Z,1.83
2023-03-25T21:25:00.866Z,1.75
2023-03-25T21:27:38.566Z,1.63
2023-03-25T21:30:07.538Z,1.00
2023-03-25T21:32:33.935Z,1.50
2023-03-25T21:35:00.248Z,1.65
2023-03-25T21:37:27.400Z,1.73
2023-03-25T21:39:57.423Z,1.70
2023-03-25T21:42:23.759Z,1.13
2023-03-25T21:44:50.098Z,1.42
2023-03-25T21:47:17.775Z,1.63
2023-03-25T21:49:45.210Z,1.65
2023-03-25T21:52:12.974Z,1.50
2023-03-25T21:54:43.486Z,2.22
2023-03-25T21:57:11.139Z,1.30
2023-03-25T21:59:37.824Z,1.67
2023-03-25T22:02:04.210Z,1.85
2023-03-25T22:04:33.495Z,1.20
2023-03-25T22:07:00.144Z,1.80
2023-03-25T22:09:26.500Z,1.80
2023-03-25T22:11:52.859Z,1.25
2023-03-25T22:14:19.162Z,1.52
2023-03-25T22:16:45.718Z,1.10
2023-03-25T22:19:12.143Z,1.45
2023-03-25T22:21:38.631Z,1.70
2023-03-25T22:24:06.482Z,2.40
2023-03-25T22:26:33.319Z,1.50
2023-03-25T22:29:02.839Z,1.23
2023-03-25T22:31:31.038Z,1.60
2023-03-25T22:34:10.991Z,1.00
2023-03-25T22:36:38.693Z,1.33
2023-03-25T22:39:06.454Z,1.58
2023-03-25T22:41:33.234Z,1.88
2023-03-25T22:43:59.910Z,2.28
2023-03-25T22:46:26.338Z,2.10
2023-03-25T22:48:52.704Z,1.95
2023-03-25T22:51:20.356Z,1.88
2023-03-25T22:53:46.948Z,1.60
2023-03-25T22:56:13.888Z,1.70
2023-03-25T22:58:40.853Z,2.03
2023-03-25T23:01:17.420Z,0.95
2023-03-25T23:03:43.972Z,1.52
2023-03-25T23:06:10.381Z,1.25
2023-03-25T23:08:38.884Z,1.25
2023-03-25T23:11:13.166Z,1.48
2023-03-25T23:13:41.301Z,1.20
2023-03-25T23:16:18.917Z,1.45
2023-03-25T23:18:45.915Z,1.02
2023-03-25T23:21:16.322Z,1.30
2023-03-25T23:23:52.598Z,1.10
2023-03-25T23:26:22.251Z,1.10
2023-03-25T23:28:49.501Z,0.80
2023-03-25T23:31:20.318Z,0.80
2023-03-25T23:33:47.173Z,1.08
2023-03-25T23:36:14.210Z,1.30
2023-03-25T23:38:40.800Z,0.70
2023-03-25T23:41:08.293Z,1.00
2023-03-25T23:43:35.038Z,0.88
2023-03-25T23:46:02.005Z,1.00
2023-03-25T23:48:28.558Z,0.90
2023-03-25T23:50:56.713Z,1.00
2023-03-25T23:53:24.102Z,1.10
2023-03-25T23:55:52.324Z,1.33
2023-03-25T23:58:19.568Z,1.13
